Voss, Texas
Current Conditions -  °F | °C
As of 5:15 PM on Saturday 25 Oct 2014 (Local Time) from KCOM Reporting Station
Clear Clear  
Wind Chill: 89°   Ceiling: Unl
Heat Index: 89°   Visibility: 10mi
Dew Point: 52°   Wind: 8mph
Humidity: 29%   Direction: 200°SSW
Pressure: 30.09"   Gusts: NA
Location:  31.62°N, 99.56°W
Report Text: KCOM 252215Z AUTO 20007KT 10SM CLR 32/11 A3009 RMK AO2 T03150113
Loading
Personal Weather Stations






























Interactive Weather Map
Tropical Storm Tracking
New forecast layout! Learn more

10-Day Weather Forecast

Advertisements
Track Severe Weather on mobile